createdAt,value
2019-03-13T00:00:38.687Z,74.55
2019-03-13T00:03:09.965Z,69.77
2019-03-13T00:05:41.272Z,63.87
2019-03-13T00:08:12.662Z,64.87
2019-03-13T00:10:44.056Z,68.92
2019-03-13T00:13:15.436Z,57.08
2019-03-13T00:15:49.531Z,57.17
2019-03-13T00:18:19.807Z,60.65
2019-03-13T00:20:51.044Z,56.83
2019-03-13T00:23:22.326Z,48.90
2019-03-13T00:25:53.646Z,50.98
2019-03-13T00:28:25.024Z,54.27
2019-03-13T00:30:56.639Z,66.75
2019-03-13T00:33:27.903Z,68.22
2019-03-13T00:35:59.215Z,82.90
2019-03-13T00:38:30.530Z,70.55
2019-03-13T00:41:01.735Z,80.65
2019-03-13T00:43:33.064Z,74.15
2019-03-13T00:46:04.392Z,76.75
2019-03-13T00:48:35.764Z,82.33
2019-03-13T00:51:07.177Z,80.77
2019-03-13T00:53:38.619Z,85.57
2019-03-13T00:56:09.892Z,89.77
2019-03-13T00:58:41.317Z,81.05
2019-03-13T01:01:29.285Z,82.78
2019-03-13T01:04:11.216Z,89.15
2019-03-13T01:06:44.319Z,90.28
2019-03-13T01:09:15.687Z,65.30
2019-03-13T01:11:47.091Z,82.37
2019-03-13T01:14:18.443Z,70.17
2019-03-13T01:16:50.438Z,65.70
2019-03-13T01:21:53.096Z,56.37
2019-03-13T01:24:24.544Z,53.15
2019-03-13T01:26:55.988Z,46.35
2019-03-13T01:29:27.373Z,45.35
2019-03-13T01:32:06.201Z,47.55
2019-03-13T01:34:39.057Z,49.60
2019-03-13T01:37:10.588Z,47.20
2019-03-13T01:39:41.918Z,47.65
2019-03-13T01:42:13.298Z,49.05
2019-03-13T01:44:44.705Z,49.98
2019-03-13T01:47:16.039Z,52.00
2019-03-13T01:49:47.539Z,52.93
2019-03-13T01:52:19.033Z,49.77
2019-03-13T01:54:50.292Z,46.00
2019-03-13T01:57:21.830Z,34.48
2019-03-13T01:59:53.170Z,41.42
2019-03-13T02:02:24.529Z,42.83
2019-03-13T02:04:55.913Z,41.25
2019-03-13T02:07:27.245Z,39.38
2019-03-13T02:09:58.529Z,37.20
2019-03-13T02:12:29.862Z,39.38
2019-03-13T02:15:01.337Z,36.45
2019-03-13T02:17:32.648Z,32.45
2019-03-13T02:20:05.005Z,38.25
2019-03-13T02:22:36.825Z,36.50
2019-03-13T02:25:12.579Z,25.25
2019-03-13T02:27:45.223Z,37.28
2019-03-13T02:30:19.734Z,38.30
2019-03-13T02:32:50.992Z,44.42
2019-03-13T02:35:22.281Z,39.85
2019-03-13T02:37:53.574Z,35.00
2019-03-13T02:40:24.993Z,44.18
2019-03-13T02:42:56.681Z,35.25
2019-03-13T02:45:28.103Z,40.20
2019-03-13T02:47:59.448Z,38.80
2019-03-13T02:50:30.844Z,35.95
2019-03-13T02:53:02.179Z,42.60
2019-03-13T02:55:34.520Z,36.60
2019-03-13T02:58:05.852Z,40.00
2019-03-13T03:00:41.640Z,42.93
2019-03-13T03:03:26.767Z,42.03
2019-03-13T03:05:59.766Z,41.35
2019-03-13T03:08:31.028Z,38.63
2019-03-13T03:11:02.468Z,42.17
2019-03-13T03:13:33.899Z,38.95
2019-03-13T03:16:06.520Z,41.37
2019-03-13T03:18:37.928Z,46.77
2019-03-13T03:21:09.302Z,39.40
2019-03-13T03:23:45.055Z,43.42
2019-03-13T03:26:13.637Z,51.55
2019-03-13T03:28:44.972Z,41.20
2019-03-13T03:31:16.316Z,50.33
2019-03-13T03:33:59.021Z,55.52
2019-03-13T03:36:30.478Z,48.58
2019-03-13T03:39:01.673Z,45.83
2019-03-13T03:41:34.630Z,45.15
2019-03-13T03:44:05.969Z,48.95
2019-03-13T03:46:37.368Z,52.38
2019-03-13T03:49:09.810Z,56.45
2019-03-13T03:51:41.224Z,62.70
2019-03-13T03:54:12.527Z,69.07
2019-03-13T03:56:43.894Z,77.25
2019-03-13T03:59:15.150Z,81.70
2019-03-13T04:01:46.542Z,84.30
2019-03-13T04:04:17.846Z,99.35
2019-03-13T04:06:49.225Z,78.75
2019-03-13T04:09:20.538Z,81.65
2019-03-13T04:11:51.885Z,81.25
2019-03-13T04:14:23.193Z,85.03
2019-03-13T04:16:54.621Z,64.20
2019-03-13T04:19:25.939Z,59.45
2019-03-13T04:21:57.274Z,67.35
2019-03-13T04:24:28.601Z,60.43
2019-03-13T04:26:59.942Z,68.00
2019-03-13T04:29:31.235Z,76.20
2019-03-13T04:32:02.614Z,103.07
2019-03-13T04:34:34.012Z,90.95
2019-03-13T04:37:05.344Z,51.37
2019-03-13T04:39:36.677Z,69.80
2019-03-13T04:42:08.021Z,69.75
2019-03-13T04:44:39.324Z,70.57
2019-03-13T04:47:10.641Z,81.47
2019-03-13T04:49:43.548Z,50.98
2019-03-13T04:52:14.884Z,62.35
2019-03-13T04:54:46.206Z,69.82
2019-03-13T04:57:17.627Z,89.87
2019-03-13T04:59:48.916Z,92.08
2019-03-13T05:02:20.171Z,68.62
2019-03-13T05:04:51.505Z,56.28
2019-03-13T05:07:22.975Z,54.73
2019-03-13T05:09:54.284Z,54.93
2019-03-13T05:12:26.137Z,33.85
2019-03-13T05:14:57.609Z,30.37
2019-03-13T05:17:28.932Z,43.55
2019-03-13T05:20:00.392Z,43.85
2019-03-13T05:22:31.680Z,41.23
2019-03-13T05:25:02.985Z,51.55
2019-03-13T05:27:34.278Z,36.17
2019-03-13T05:30:08.354Z,27.82
2019-03-13T05:32:39.790Z,35.83
2019-03-13T05:35:11.037Z,33.60
2019-03-13T05:37:42.374Z,26.50
2019-03-13T05:40:13.607Z,41.18
2019-03-13T05:42:44.882Z,45.25
2019-03-13T05:45:16.320Z,59.77
2019-03-13T05:47:47.672Z,52.43
2019-03-13T05:50:19.063Z,47.80
2019-03-13T05:52:50.356Z,35.13
2019-03-13T05:55:21.663Z,31.02
2019-03-13T05:57:52.921Z,21.68
2019-03-13T06:00:25.043Z,23.30
2019-03-13T06:05:26.644Z,24.63
2019-03-13T06:07:57.965Z,22.82
2019-03-13T06:10:29.257Z,31.10
2019-03-13T06:13:00.667Z,46.10
2019-03-13T06:15:32.022Z,27.27
2019-03-13T06:18:03.395Z,28.17
2019-03-13T06:20:34.761Z,18.92
2019-03-13T06:23:06.030Z,20.65
2019-03-13T06:25:37.336Z,24.63
2019-03-13T06:28:08.748Z,22.50
2019-03-13T06:30:40.061Z,22.80
2019-03-13T06:33:11.475Z,30.77
2019-03-13T06:35:42.888Z,18.32
2019-03-13T06:38:31.163Z,32.83
2019-03-13T06:41:05.111Z,29.75
2019-03-13T06:43:35.595Z,24.95
2019-03-13T06:46:06.917Z,31.60
2019-03-13T06:48:41.181Z,28.35
2019-03-13T06:51:15.714Z,38.95
2019-03-13T06:53:47.087Z,35.73
2019-03-13T06:56:18.270Z,45.80
2019-03-13T06:58:51.194Z,19.10
2019-03-13T07:01:24.015Z,25.50
2019-03-13T07:03:56.826Z,26.35
2019-03-13T07:06:29.835Z,29.95
2019-03-13T07:09:05.683Z,34.58
2019-03-13T07:11:39.984Z,32.95
2019-03-13T07:14:27.695Z,19.90
2019-03-13T07:17:06.289Z,19.42
2019-03-13T07:19:54.406Z,18.42
2019-03-13T07:22:37.553Z,21.12
2019-03-13T07:28:17.112Z,19.82
2019-03-13T07:30:49.959Z,18.32
2019-03-13T07:33:39.069Z,22.05
2019-03-13T07:36:16.148Z,25.77
2019-03-13T07:38:51.955Z,24.95
2019-03-13T07:41:24.948Z,16.80
2019-03-13T07:44:16.126Z,19.62
2019-03-13T07:47:07.385Z,23.75
2019-03-13T07:49:43.072Z,24.25
2019-03-13T07:52:32.946Z,18.02
2019-03-13T07:55:11.703Z,25.37
2019-03-13T07:57:57.300Z,16.35
2019-03-13T08:00:33.484Z,15.10
2019-03-13T08:03:06.430Z,13.60
2019-03-13T08:05:48.353Z,21.42
2019-03-13T08:08:24.045Z,22.70
2019-03-13T08:10:56.986Z,16.82
2019-03-13T08:13:45.233Z,43.35
2019-03-13T08:16:20.804Z,42.78
2019-03-13T08:18:59.404Z,22.00
2019-03-13T08:21:35.257Z,12.45
2019-03-13T08:24:17.346Z,15.05
2019-03-13T08:26:50.067Z,25.95
2019-03-13T08:29:26.050Z,18.02
2019-03-13T08:32:16.838Z,29.40
2019-03-13T08:34:49.757Z,29.98
2019-03-13T08:37:41.786Z,13.62
2019-03-13T08:40:16.035Z,16.10
2019-03-13T08:42:48.780Z,19.87
2019-03-13T08:45:24.512Z,13.08
2019-03-13T08:48:00.439Z,20.60
2019-03-13T08:50:39.339Z,10.78
2019-03-13T08:53:14.961Z,12.47
2019-03-13T08:55:50.450Z,20.45
2019-03-13T08:58:26.085Z,13.22
2019-03-13T09:00:58.905Z,10.18
2019-03-13T09:03:34.638Z,19.87
2019-03-13T09:06:07.520Z,17.75
2019-03-13T09:08:52.324Z,9.28
2019-03-13T09:11:28.032Z,9.03
2019-03-13T09:14:16.168Z,12.40
2019-03-13T09:16:55.505Z,9.03
2019-03-13T09:19:34.385Z,12.65
2019-03-13T09:22:19.179Z,14.10
2019-03-13T09:25:12.360Z,9.33
2019-03-13T09:27:58.978Z,6.80
2019-03-13T09:30:31.844Z,8.35
2019-03-13T09:33:19.838Z,9.28
2019-03-13T09:36:08.862Z,12.68
2019-03-13T09:38:41.686Z,14.00
2019-03-13T09:41:14.457Z,9.03
2019-03-13T09:44:03.438Z,14.87
2019-03-13T09:46:41.903Z,16.85
2019-03-13T09:49:15.005Z,16.75
2019-03-13T09:52:04.028Z,12.07
2019-03-13T09:54:36.894Z,11.10
2019-03-13T09:57:09.761Z,16.00
2019-03-13T09:59:58.697Z,12.37
2019-03-13T10:02:31.485Z,17.35
2019-03-13T10:05:04.378Z,22.67
2019-03-13T10:07:43.240Z,14.85
2019-03-13T10:10:16.085Z,12.10
2019-03-13T10:12:52.120Z,19.32
2019-03-13T10:15:28.042Z,32.20
2019-03-13T10:18:03.808Z,21.82
2019-03-13T10:20:53.354Z,18.12
2019-03-13T10:23:26.201Z,17.60
2019-03-13T10:26:12.297Z,12.15
2019-03-13T10:28:47.828Z,16.45
2019-03-13T10:31:26.637Z,15.45
2019-03-13T10:33:59.369Z,15.55
2019-03-13T10:36:44.113Z,17.82
2019-03-13T10:39:22.559Z,15.03
2019-03-13T10:41:58.946Z,10.05
2019-03-13T10:44:41.295Z,6.15
2019-03-13T10:47:16.784Z,19.10
2019-03-13T10:49:55.458Z,10.00
2019-03-13T10:52:40.084Z,11.20
2019-03-13T10:55:18.869Z,16.75
2019-03-13T10:58:12.149Z,6.20
2019-03-13T11:00:56.820Z,11.97
2019-03-13T11:03:32.575Z,16.05
2019-03-13T11:06:20.498Z,11.00
2019-03-13T11:09:09.690Z,17.70
2019-03-13T11:11:42.529Z,15.78
2019-03-13T11:14:21.089Z,15.63
2019-03-13T11:16:53.869Z,14.50
2019-03-13T11:19:26.571Z,13.50
2019-03-13T11:21:59.331Z,7.75
2019-03-13T11:24:40.922Z,13.55
2019-03-13T11:27:31.819Z,18.23
2019-03-13T11:30:07.270Z,9.80
2019-03-13T11:32:43.021Z,16.73
2019-03-13T11:35:21.745Z,10.82
2019-03-13T11:37:57.328Z,9.00
2019-03-13T11:40:36.073Z,27.40
2019-03-13T11:43:08.805Z,8.58
2019-03-13T11:46:02.807Z,28.75
2019-03-13T11:48:35.818Z,21.10
2019-03-13T11:51:14.573Z,15.18
2019-03-13T11:53:51.347Z,10.63
2019-03-13T11:56:40.294Z,14.15
2019-03-13T11:59:18.960Z,11.30
2019-03-13T12:01:51.803Z,18.17
2019-03-13T12:04:24.812Z,12.10
2019-03-13T12:07:00.396Z,13.68
2019-03-13T12:09:36.232Z,23.02
2019-03-13T12:12:13.755Z,13.40
2019-03-13T12:14:46.629Z,8.45
2019-03-13T12:17:19.432Z,9.40
2019-03-13T12:19:52.192Z,11.05
2019-03-13T12:22:28.121Z,12.35
2019-03-13T12:25:04.312Z,8.78
2019-03-13T12:27:42.821Z,14.95
2019-03-13T12:30:22.790Z,14.40
2019-03-13T12:33:10.775Z,8.65
2019-03-13T12:35:52.633Z,18.87
2019-03-13T12:38:43.683Z,11.53
2019-03-13T12:41:33.117Z,11.22
2019-03-13T12:44:09.898Z,8.00
2019-03-13T12:46:51.513Z,18.90
2019-03-13T12:49:30.011Z,8.08
2019-03-13T12:52:02.835Z,12.68
2019-03-13T12:54:38.593Z,17.40
2019-03-13T12:57:11.393Z,9.63
2019-03-13T13:00:00.679Z,12.00
2019-03-13T13:02:34.835Z,13.62
2019-03-13T13:05:29.572Z,19.20
2019-03-13T13:08:02.350Z,18.92
2019-03-13T13:10:50.534Z,22.75
2019-03-13T13:13:23.248Z,14.15
2019-03-13T13:15:55.975Z,10.50
2019-03-13T13:18:31.488Z,7.55
2019-03-13T13:21:02.602Z,8.30
2019-03-13T13:23:33.727Z,13.73
2019-03-13T13:26:04.976Z,10.38
2019-03-13T13:28:36.044Z,16.10
2019-03-13T13:31:07.208Z,42.63
2019-03-13T13:33:38.476Z,14.58
2019-03-13T13:36:09.729Z,19.12
2019-03-13T13:38:40.886Z,14.30
2019-03-13T13:41:12.004Z,15.53
2019-03-13T13:43:43.226Z,15.10
2019-03-13T13:46:20.048Z,8.38
2019-03-13T13:48:51.253Z,11.75
2019-03-13T13:51:22.489Z,9.80
2019-03-13T13:53:55.773Z,11.73
2019-03-13T13:56:26.779Z,15.90
2019-03-13T13:58:58.430Z,20.37
2019-03-13T14:01:29.585Z,20.80
2019-03-13T14:04:00.869Z,18.40
2019-03-13T14:06:32.142Z,14.85
2019-03-13T14:09:04.917Z,16.57
2019-03-13T14:11:37.587Z,16.17
2019-03-13T14:14:09.037Z,10.53
2019-03-13T14:16:40.258Z,10.82
2019-03-13T14:19:11.539Z,15.93
2019-03-13T14:21:42.684Z,22.87
2019-03-13T14:24:17.012Z,21.73
2019-03-13T14:26:46.877Z,17.60
2019-03-13T14:29:18.114Z,18.67
2019-03-13T14:31:49.246Z,11.73
2019-03-13T14:34:20.369Z,11.38
2019-03-13T14:36:51.531Z,10.72
2019-03-13T14:39:22.715Z,15.40
2019-03-13T14:41:53.883Z,20.83
2019-03-13T14:44:25.061Z,18.17
2019-03-13T14:46:56.225Z,14.58
2019-03-13T14:49:27.710Z,21.07
2019-03-13T14:51:58.873Z,18.05
2019-03-13T14:54:29.995Z,17.13
2019-03-13T14:57:01.661Z,26.10
2019-03-13T14:59:34.543Z,34.13
2019-03-13T15:02:05.949Z,31.20
2019-03-13T15:04:37.257Z,20.62
2019-03-13T15:07:08.465Z,18.35
2019-03-13T15:09:39.614Z,14.25
2019-03-13T15:12:10.806Z,15.90
2019-03-13T15:14:41.890Z,12.80
2019-03-13T15:17:13.133Z,14.75
2019-03-13T15:19:44.285Z,18.67
2019-03-13T15:22:15.450Z,51.88
2019-03-13T15:24:46.756Z,55.05
2019-03-13T15:27:17.995Z,75.03
2019-03-13T15:29:49.285Z,29.02
2019-03-13T15:32:20.677Z,28.07
2019-03-13T15:34:52.050Z,46.42
2019-03-13T15:37:23.318Z,30.50
2019-03-13T15:39:56.173Z,32.78
2019-03-13T15:42:27.491Z,31.52
2019-03-13T15:44:59.002Z,28.05
2019-03-13T15:47:30.259Z,23.75
2019-03-13T15:50:01.317Z,31.35
2019-03-13T15:52:32.813Z,51.83
2019-03-13T15:55:09.532Z,36.58
2019-03-13T15:57:40.836Z,38.70
2019-03-13T16:00:26.142Z,45.52
2019-03-13T16:02:57.719Z,40.25
2019-03-13T16:05:29.023Z,40.88
2019-03-13T16:08:00.361Z,41.02
2019-03-13T16:10:31.726Z,80.92
2019-03-13T16:13:04.552Z,61.63
2019-03-13T16:15:37.471Z,70.75
2019-03-13T16:18:08.749Z,59.15
2019-03-13T16:20:39.997Z,62.90
2019-03-13T16:23:11.314Z,52.20
2019-03-13T16:25:42.634Z,55.48
2019-03-13T16:28:14.726Z,54.00
2019-03-13T16:33:20.719Z,35.08
2019-03-13T16:35:53.456Z,48.33
2019-03-13T16:38:24.766Z,31.42
2019-03-13T16:40:56.887Z,36.68
2019-03-13T16:43:28.239Z,31.37
2019-03-13T16:45:59.546Z,27.90
2019-03-13T16:48:30.794Z,39.33
2019-03-13T16:51:01.903Z,50.80
2019-03-13T16:53:33.135Z,50.23
2019-03-13T16:56:04.484Z,93.80
2019-03-13T16:58:35.822Z,148.85
2019-03-13T17:01:07.160Z,154.32
2019-03-13T17:03:38.421Z,152.45
2019-03-13T17:06:09.746Z,137.45
2019-03-13T17:08:42.695Z,138.37
2019-03-13T17:11:14.101Z,130.93
2019-03-13T17:13:45.442Z,130.52
2019-03-13T17:16:16.760Z,128.75
2019-03-13T17:18:48.302Z,124.25
2019-03-13T17:21:19.552Z,123.82
2019-03-13T17:23:50.824Z,125.70
2019-03-13T17:26:22.196Z,117.13
2019-03-13T17:28:53.550Z,105.10
2019-03-13T17:31:24.931Z,89.20
2019-03-13T17:33:56.245Z,71.57
2019-03-13T17:36:27.600Z,47.90
2019-03-13T17:38:59.364Z,48.00
2019-03-13T17:41:30.641Z,55.58
2019-03-13T17:44:01.978Z,53.75
2019-03-13T17:46:33.346Z,39.58
2019-03-13T17:49:08.231Z,49.27
2019-03-13T17:51:39.596Z,47.23
2019-03-13T17:54:12.197Z,40.25
2019-03-13T17:56:43.572Z,36.80
2019-03-13T17:59:14.896Z,40.88
2019-03-13T18:01:46.147Z,50.75
2019-03-13T18:04:23.807Z,44.67
2019-03-13T18:06:55.046Z,41.08
2019-03-13T18:09:26.475Z,45.23
2019-03-13T18:11:57.904Z,45.90
2019-03-13T18:14:32.076Z,45.25
2019-03-13T18:17:02.381Z,42.98
2019-03-13T18:19:36.195Z,44.20
2019-03-13T18:22:07.572Z,45.88
2019-03-13T18:24:41.919Z,51.30
2019-03-13T18:27:14.882Z,56.60
2019-03-13T18:29:49.409Z,46.80
2019-03-13T18:32:21.617Z,53.78
2019-03-13T18:34:53.061Z,53.75
2019-03-13T18:37:24.251Z,59.60
2019-03-13T18:39:55.632Z,74.55
2019-03-13T18:42:26.886Z,69.47
2019-03-13T18:45:00.668Z,67.15
2019-03-13T18:47:31.963Z,83.05
2019-03-13T18:50:04.234Z,69.80
2019-03-13T18:52:35.575Z,100.90
2019-03-13T18:55:09.951Z,99.07
2019-03-13T18:57:41.111Z,91.35
2019-03-13T19:00:21.345Z,84.72
2019-03-13T19:02:52.617Z,97.88
2019-03-13T19:05:23.949Z,81.67
2019-03-13T19:07:55.308Z,95.47
2019-03-13T19:10:28.120Z,92.22
2019-03-13T19:12:59.588Z,109.60
2019-03-13T19:15:30.776Z,116.35
2019-03-13T19:18:02.014Z,130.27
2019-03-13T19:20:33.357Z,120.02
2019-03-13T19:23:04.722Z,127.58
2019-03-13T19:25:35.972Z,123.80
2019-03-13T19:28:07.353Z,147.45
2019-03-13T19:30:38.688Z,136.18
2019-03-13T19:33:09.964Z,106.60
2019-03-13T19:35:41.251Z,168.52
2019-03-13T19:38:14.949Z,181.60
2019-03-13T19:40:46.302Z,197.35
2019-03-13T19:43:17.644Z,191.10
2019-03-13T19:45:48.959Z,260.32
2019-03-13T19:48:20.199Z,292.35
2019-03-13T19:50:51.418Z,327.55
2019-03-13T19:53:22.761Z,298.05
2019-03-13T19:55:54.031Z,308.10
2019-03-13T19:58:25.625Z,303.77
2019-03-13T20:00:58.112Z,285.07
2019-03-13T20:03:29.514Z,311.70
2019-03-13T20:06:00.856Z,296.75
2019-03-13T20:08:32.190Z,289.50
2019-03-13T20:11:03.665Z,232.05
2019-03-13T20:13:35.210Z,337.52
2019-03-13T20:16:06.585Z,326.07
2019-03-13T20:18:37.925Z,362.10
2019-03-13T20:21:09.270Z,352.43
2019-03-13T20:23:41.858Z,353.23
2019-03-13T20:26:13.192Z,356.20
2019-03-13T20:28:46.226Z,352.68
2019-03-13T20:31:17.426Z,349.05
2019-03-13T20:33:48.809Z,255.43
2019-03-13T20:36:20.213Z,326.98
2019-03-13T20:38:51.542Z,306.52
2019-03-13T20:41:22.933Z,298.60
2019-03-13T20:43:54.301Z,310.48
2019-03-13T20:46:25.717Z,333.73
2019-03-13T20:48:57.067Z,304.48
2019-03-13T20:51:28.438Z,283.68
2019-03-13T20:53:59.705Z,372.30
2019-03-13T20:56:31.001Z,363.65
2019-03-13T20:59:02.327Z,395.82
2019-03-13T21:01:33.675Z,378.50
2019-03-13T21:04:07.511Z,375.75
2019-03-13T21:06:38.159Z,374.73
2019-03-13T21:09:09.400Z,331.52
2019-03-13T21:11:41.086Z,323.55
2019-03-13T21:14:12.347Z,231.00
2019-03-13T21:16:43.609Z,282.53
2019-03-13T21:19:14.871Z,308.40
2019-03-13T21:21:46.228Z,334.85
2019-03-13T21:24:17.577Z,488.20
2019-03-13T21:26:49.486Z,486.10
2019-03-13T21:29:21.006Z,706.67
2019-03-13T21:31:52.361Z,613.40
2019-03-13T21:34:23.639Z,575.95
2019-03-13T21:36:56.056Z,476.63
2019-03-13T21:39:27.634Z,412.45
2019-03-13T21:41:58.914Z,389.38
2019-03-13T21:44:30.227Z,350.22
2019-03-13T21:47:01.439Z,319.02
2019-03-13T21:49:32.632Z,294.30
2019-03-13T21:52:03.883Z,198.20
2019-03-13T21:54:35.181Z,239.82
2019-03-13T21:57:06.550Z,254.03
2019-03-13T21:59:37.956Z,231.40
2019-03-13T22:02:09.803Z,203.00
2019-03-13T22:04:41.022Z,218.40
2019-03-13T22:07:12.296Z,200.87
2019-03-13T22:09:43.627Z,175.50
2019-03-13T22:12:15.032Z,152.30
2019-03-13T22:14:46.387Z,127.60
2019-03-13T22:17:17.823Z,138.43
2019-03-13T22:19:49.081Z,137.35
2019-03-13T22:22:20.300Z,124.75
2019-03-13T22:24:51.549Z,106.87
2019-03-13T22:27:22.842Z,95.12
2019-03-13T22:29:54.123Z,110.63
2019-03-13T22:32:25.542Z,84.40
2019-03-13T22:34:56.925Z,82.90
2019-03-13T22:37:28.237Z,88.55
2019-03-13T22:39:59.624Z,86.05
2019-03-13T22:42:31.066Z,80.50
2019-03-13T22:45:02.283Z,78.57
2019-03-13T22:47:42.562Z,89.70
2019-03-13T22:50:09.785Z,85.38
2019-03-13T22:52:41.100Z,141.47
2019-03-13T22:55:12.366Z,199.32
2019-03-13T22:57:43.712Z,96.08
2019-03-13T23:00:22.286Z,102.20
2019-03-13T23:02:55.289Z,106.72
2019-03-13T23:05:26.592Z,70.00
2019-03-13T23:07:57.875Z,60.92
2019-03-13T23:10:33.817Z,80.77
2019-03-13T23:13:05.144Z,93.62
2019-03-13T23:15:36.434Z,70.85
2019-03-13T23:18:08.243Z,79.25
2019-03-13T23:20:39.631Z,79.77
2019-03-13T23:23:10.967Z,89.30
2019-03-13T23:25:42.373Z,70.35
2019-03-13T23:28:13.730Z,82.40
2019-03-13T23:30:45.068Z,79.12
2019-03-13T23:33:16.389Z,87.90
2019-03-13T23:35:48.984Z,80.40
2019-03-13T23:38:20.371Z,77.80
2019-03-13T23:40:51.761Z,86.35
2019-03-13T23:43:23.153Z,80.92
2019-03-13T23:45:55.149Z,82.72
2019-03-13T23:50:56.571Z,80.40
2019-03-13T23:53:27.826Z,81.20
2019-03-13T23:55:59.015Z,59.53
2019-03-13T23:58:30.254Z,75.40
